Time;durP1;ratioP1;P1;durP2;ratioP2;P2;SDS_P1;SDS_P2;PMS_P1;PMS_P2;Temp;Humidity;BMP_temperature;BMP_pressure;BME280_temperature;BME280_humidity;BME280_pressure;Samples;Min_cycle;Max_cycle;Signal;HPM_P1;HPM_P2
2024/01/13 00:02:14;;;;;;;15.63;8.88;;;13.50;52.90;;;;;;5168406;27;45365;-51
2024/01/13 00:04:41;;;;;;;16.88;9.00;;;13.50;54.80;;;;;;5170834;27;45364;-50
2024/01/13 00:07:09;;;;;;;15.35;8.73;;;13.50;53.80;;;;;;5169906;27;45446;-50
2024/01/13 00:09:36;;;;;;;16.63;8.65;;;13.50;53.30;;;;;;5177224;27;48243;-50
2024/01/13 00:12:03;;;;;;;19.23;9.32;;;13.50;53.20;;;;;;5176932;27;45379;-50
2024/01/13 00:14:29;;;;;;;17.13;9.40;;;13.50;53.30;;;;;;5178236;27;45251;-51
2024/01/13 00:16:56;;;;;;;16.35;9.27;;;13.40;52.90;;;;;;5174853;27;45385;-51
2024/01/13 00:19:23;;;;;;;17.65;9.18;;;13.50;53.10;;;;;;5177605;27;45282;-50
2024/01/13 00:21:50;;;;;;;16.70;9.50;;;13.50;53.20;;;;;;5178809;27;45398;-50
2024/01/13 00:24:18;;;;;;;18.55;9.00;;;13.50;53.00;;;;;;5179399;27;45329;-50
2024/01/13 00:26:45;;;;;;;15.50;9.07;;;13.50;53.10;;;;;;5176751;27;45355;-50
2024/01/13 00:29:11;;;;;;;14.73;8.50;;;13.50;52.90;;;;;;5175225;27;48587;-50
2024/01/13 00:31:38;;;;;;;15.88;9.65;;;13.50;52.80;;;;;;5175710;27;45925;-50
2024/01/13 00:34:05;;;;;;;18.40;9.55;;;13.50;52.90;;;;;;5173350;27;45377;-51
2024/01/13 00:36:32;;;;;;;17.10;9.80;;;13.50;52.80;;;;;;5176546;27;45423;-51
2024/01/13 00:38:59;;;;;;;19.55;9.45;;;13.50;52.60;;;;;;5172956;27;45462;-51
2024/01/13 00:41:27;;;;;;;16.23;8.98;;;13.50;52.60;;;;;;5174720;27;45295;-50
2024/01/13 00:43:54;;;;;;;15.23;8.73;;;13.50;52.60;;;;;;5174254;27;45495;-50
2024/01/13 00:46:21;;;;;;;18.52;9.75;;;13.50;52.50;;;;;;5173205;27;45411;-50
2024/01/13 00:48:47;;;;;;;15.02;9.00;;;13.40;52.60;;;;;;5173787;27;45511;-51
2024/01/13 00:51:14;;;;;;;19.75;9.57;;;13.40;52.50;;;;;;5173321;27;45415;-51
2024/01/13 00:53:42;;;;;;;18.20;9.07;;;13.40;52.80;;;;;;5174069;27;45328;-50
2024/01/13 00:56:09;;;;;;;16.83;8.98;;;13.40;52.70;;;;;;5175733;27;45194;-50
2024/01/13 00:58:37;;;;;;;17.08;8.50;;;13.40;52.70;;;;;;5174352;27;45232;-50
2024/01/13 01:01:04;;;;;;;18.58;9.40;;;13.40;52.60;;;;;;5172866;27;45406;-50
2024/01/13 01:03:31;;;;;;;17.55;9.10;;;13.40;52.90;;;;;;5174760;27;45292;-50
2024/01/13 01:05:59;;;;;;;16.90;9.45;;;13.40;52.70;;;;;;5176558;27;45195;-50
2024/01/13 01:08:26;;;;;;;20.58;9.35;;;13.40;52.70;;;;;;5177650;27;46707;-50
2024/01/13 01:10:53;;;;;;;18.73;10.20;;;13.40;52.80;;;;;;5173741;27;45171;-50
2024/01/13 01:13:18;;;;;;;19.42;9.70;;;13.50;52.60;;;;;;5178492;27;45786;-50
2024/01/13 01:15:47;;;;;;;17.65;8.90;;;13.50;52.60;;;;;;5177446;27;45207;-50
2024/01/13 01:18:13;;;;;;;16.55;9.05;;;13.40;52.50;;;;;;5172413;27;45469;-51
2024/01/13 01:20:40;;;;;;;19.13;9.57;;;13.50;52.70;;;;;;5172945;27;45455;-50
2024/01/13 01:23:08;;;;;;;17.42;9.43;;;13.50;52.50;;;;;;5173105;27;45309;-50
2024/01/13 01:25:35;;;;;;;16.83;9.38;;;13.50;52.40;;;;;;5171910;27;45276;-51
2024/01/13 01:28:01;;;;;;;16.02;8.90;;;13.50;52.50;;;;;;5179567;27;47482;-51
2024/01/13 01:30:28;;;;;;;15.68;8.68;;;13.60;52.50;;;;;;5176629;27;45425;-50
2024/01/13 01:32:56;;;;;;;12.93;8.30;;;13.50;52.30;;;;;;5171674;27;45424;-50
2024/01/13 01:35:23;;;;;;;15.40;7.93;;;13.50;52.30;;;;;;5174150;27;45305;-50
2024/01/13 01:37:50;;;;;;;18.35;9.90;;;13.50;52.20;;;;;;5171497;27;46201;-50
2024/01/13 01:40:18;;;;;;;16.85;8.50;;;13.50;52.30;;;;;;5172803;27;45436;-50
2024/01/13 01:42:45;;;;;;;15.07;8.30;;;13.50;52.30;;;;;;5172075;27;45225;-50
2024/01/13 01:45:11;;;;;;;15.55;8.88;;;13.40;52.20;;;;;;5173533;27;45200;-50
2024/01/13 01:47:41;;;;;;;20.17;9.35;;;13.40;52.30;;;;;;5172114;27;46096;-50
2024/01/13 01:50:11;;;;;;;16.50;9.13;;;13.50;52.30;;;;;;5178766;27;45305;-50
2024/01/13 01:52:39;;;;;;;18.25;8.95;;;13.40;52.20;;;;;;5173435;27;45346;-51
2024/01/13 01:55:06;;;;;;;14.68;8.73;;;13.40;52.10;;;;;;5172968;27;45784;-50
2024/01/13 01:57:38;;;;;;;17.40;8.95;;;13.40;52.10;;;;;;5173722;27;45521;-50
2024/01/13 02:00:06;;;;;;;17.30;9.15;;;13.40;52.20;;;;;;5175921;27;45927;-50
2024/01/13 02:02:34;;;;;;;14.90;9.15;;;13.40;52.10;;;;;;5177273;27;45294;-50
2024/01/13 02:05:02;;;;;;;16.88;8.27;;;13.40;51.90;;;;;;5173349;27;45773;-50
2024/01/13 02:07:33;;;;;;;13.93;8.25;;;13.50;52.20;;;;;;5176511;27;47297;-50
2024/01/13 02:10:00;;;;;;;16.92;8.80;;;13.50;52.30;;;;;;5175000;27;45237;-50
2024/01/13 02:12:27;;;;;;;15.18;8.63;;;13.50;52.40;;;;;;5172069;27;45418;-50
2024/01/13 02:14:54;;;;;;;15.43;9.10;;;13.50;52.50;;;;;;5174791;27;45172;-51
2024/01/13 02:17:22;;;;;;;16.55;8.40;;;13.50;52.40;;;;;;5169967;27;46496;-50
2024/01/13 02:19:48;;;;;;;17.00;8.82;;;13.50;52.50;;;;;;5172134;27;45359;-50
2024/01/13 02:22:17;;;;;;;17.33;9.05;;;13.50;52.40;;;;;;5173487;27;45318;-50
2024/01/13 02:24:43;;;;;;;15.18;8.25;;;13.60;52.20;;;;;;5170815;27;45220;-50
2024/01/13 02:27:10;;;;;;;17.15;8.13;;;13.60;52.30;;;;;;5171073;27;45377;-51
2024/01/13 02:29:37;;;;;;;14.25;8.55;;;13.60;52.20;;;;;;5174498;27;45272;-50
2024/01/13 02:32:04;;;;;;;17.08;9.15;;;13.50;52.10;;;;;;5174545;27;45276;-50
2024/01/13 02:34:31;;;;;;;16.80;9.55;;;13.50;52.10;;;;;;5172053;27;45221;-51
2024/01/13 02:36:58;;;;;;;14.23;8.23;;;13.40;51.40;;;;;;5171571;27;46351;-50
2024/01/13 02:39:26;;;;;;;17.15;8.73;;;13.40;51.50;;;;;;5171840;27;45401;-50
2024/01/13 02:41:53;;;;;;;16.48;8.35;;;13.40;51.30;;;;;;5173861;27;45456;-50
2024/01/13 02:44:20;;;;;;;17.38;9.32;;;13.30;50.90;;;;;;5170181;27;45298;-51
2024/01/13 02:46:46;;;;;;;15.35;9.00;;;13.30;50.70;;;;;;5172224;27;46018;-50
2024/01/13 02:49:13;;;;;;;16.13;8.55;;;13.30;50.60;;;;;;5169357;27;45266;-50
2024/01/13 02:51:40;;;;;;;18.70;10.18;;;13.30;50.30;;;;;;5172860;27;45487;-50
2024/01/13 02:54:07;;;;;;;16.73;9.60;;;13.30;50.10;;;;;;5170593;27;45243;-50
2024/01/13 02:56:35;;;;;;;19.05;9.25;;;13.30;50.10;;;;;;5172208;27;47454;-51
2024/01/13 02:59:02;;;;;;;18.80;9.65;;;13.30;50.00;;;;;;5173066;27;45216;-50
2024/01/13 03:01:31;;;;;;;16.50;9.18;;;13.30;50.00;;;;;;5176337;27;45253;-51
2024/01/13 03:03:58;;;;;;;19.10;10.18;;;13.30;49.80;;;;;;5174092;27;45257;-50
2024/01/13 03:06:25;;;;;;;18.20;9.15;;;13.30;49.90;;;;;;5172485;27;45428;-50
2024/01/13 03:08:52;;;;;;;15.98;8.95;;;13.30;49.90;;;;;;5173804;27;46575;-50
2024/01/13 03:11:19;;;;;;;18.60;9.88;;;13.40;49.60;;;;;;5174611;27;45208;-51
2024/01/13 03:13:47;;;;;;;16.73;9.30;;;13.30;49.40;;;;;;5176775;27;45206;-51
2024/01/13 03:16:14;;;;;;;16.98;9.82;;;13.40;49.20;;;;;;5176295;27;45353;-50
2024/01/13 03:18:41;;;;;;;16.40;8.88;;;13.40;49.30;;;;;;5175369;27;45308;-51
2024/01/13 03:21:09;;;;;;;17.60;9.52;;;13.40;49.30;;;;;;5175203;27;45489;-51
2024/01/13 03:23:35;;;;;;;16.80;9.20;;;13.40;48.90;;;;;;5174005;27;45247;-51
2024/01/13 03:26:02;;;;;;;18.10;9.18;;;13.40;48.90;;;;;;5173368;27;45241;-50
2024/01/13 03:28:29;;;;;;;16.40;8.75;;;13.40;49.10;;;;;;5179778;27;45549;-51
2024/01/13 03:30:58;;;;;;;17.17;8.77;;;13.30;49.00;;;;;;5177562;27;45209;-51
2024/01/13 03:33:25;;;;;;;17.27;8.60;;;13.30;49.10;;;;;;5179869;27;46249;-50
2024/01/13 03:35:51;;;;;;;17.85;8.90;;;13.30;49.20;;;;;;5178694;27;47536;-50
2024/01/13 03:38:18;;;;;;;15.98;9.05;;;13.30;49.00;;;;;;5175868;27;45211;-50
2024/01/13 03:40:45;;;;;;;13.75;8.23;;;13.30;49.00;;;;;;5179328;27;45443;-51
2024/01/13 03:43:11;;;;;;;17.45;9.55;;;13.30;50.40;;;;;;5177042;27;45245;-50
2024/01/13 03:45:38;;;;;;;16.50;8.95;;;13.30;49.90;;;;;;5178656;27;47479;-51
2024/01/13 03:48:07;;;;;;;14.32;8.57;;;13.30;49.80;;;;;;5180354;27;45200;-50
2024/01/13 03:50:34;;;;;;;18.30;9.07;;;13.30;49.70;;;;;;5178104;27;45535;-51
2024/01/13 03:53:01;;;;;;;16.77;8.93;;;13.30;49.70;;;;;;5177995;27;45493;-50
2024/01/13 03:55:28;;;;;;;14.55;8.02;;;13.30;49.70;;;;;;5172520;27;47281;-50
2024/01/13 03:57:54;;;;;;;15.60;8.93;;;13.30;49.50;;;;;;5174303;27;45235;-51
2024/01/13 04:00:21;;;;;;;16.08;8.48;;;13.30;49.40;;;;;;5174048;27;45424;-50
2024/01/13 04:02:48;;;;;;;15.32;8.05;;;13.30;49.30;;;;;;5175257;27;45412;-51
2024/01/13 04:05:16;;;;;;;15.32;8.40;;;13.30;49.20;;;;;;5175103;27;46525;-51
2024/01/13 04:07:43;;;;;;;12.90;7.63;;;13.30;49.00;;;;;;5172943;27;45412;-51
2024/01/13 04:10:10;;;;;;;14.32;8.10;;;13.30;48.80;;;;;;5173411;27;45493;-50
2024/01/13 04:12:37;;;;;;;14.95;7.43;;;13.40;48.70;;;;;;5173710;27;45322;-50
2024/01/13 04:15:04;;;;;;;14.90;8.05;;;13.40;48.20;;;;;;5175452;27;46403;-50
2024/01/13 04:17:30;;;;;;;16.60;7.50;;;13.40;48.10;;;;;;5173774;27;45635;-51
2024/01/13 04:19:57;;;;;;;16.17;7.30;;;13.40;47.80;;;;;;5175048;27;45317;-50
2024/01/13 04:22:25;;;;;;;13.65;7.72;;;13.40;47.70;;;;;;5176266;27;45474;-51
2024/01/13 04:24:52;;;;;;;15.45;7.53;;;13.40;48.20;;;;;;5176289;27;45376;-50
2024/01/13 04:27:19;;;;;;;15.60;7.70;;;13.30;48.10;;;;;;5171677;27;45602;-50
2024/01/13 04:29:46;;;;;;;12.82;6.90;;;13.30;48.20;;;;;;5173313;27;45262;-50
2024/01/13 04:32:12;;;;;;;13.32;7.88;;;13.30;48.00;;;;;;5173428;27;45316;-50
2024/01/13 04:34:39;;;;;;;12.82;7.30;;;13.30;48.10;;;;;;5175220;27;45236;-50
2024/01/13 04:37:06;;;;;;;12.18;6.57;;;13.30;48.10;;;;;;5172899;27;45598;-51
2024/01/13 04:39:34;;;;;;;14.32;7.03;;;13.30;47.70;;;;;;5173164;27;45313;-50
2024/01/13 04:42:00;;;;;;;12.25;6.20;;;13.30;47.70;;;;;;5174674;27;45449;-50
2024/01/13 04:44:27;;;;;;;13.48;6.75;;;13.30;47.70;;;;;;5173840;27;45367;-51
2024/01/13 04:46:54;;;;;;;11.52;6.55;;;13.30;47.60;;;;;;5169782;27;45257;-50
2024/01/13 04:49:21;;;;;;;11.07;6.45;;;13.30;47.60;;;;;;5172852;27;45486;-50
2024/01/13 04:51:48;;;;;;;12.55;6.70;;;13.30;47.60;;;;;;5173250;27;45362;-51
2024/01/13 04:54:15;;;;;;;12.57;7.28;;;13.30;47.70;;;;;;5174237;27;46325;-51
2024/01/13 04:56:43;;;;;;;13.00;6.68;;;13.30;47.60;;;;;;5173605;27;45282;-50
2024/01/13 04:59:09;;;;;;;13.07;6.68;;;13.30;47.60;;;;;;5172861;27;45400;-51
2024/01/13 05:01:36;;;;;;;12.85;6.78;;;13.30;47.60;;;;;;5172271;27;45381;-51
2024/01/13 05:04:03;;;;;;;13.68;7.25;;;13.40;47.70;;;;;;5174140;27;45458;-50
2024/01/13 05:06:30;;;;;;;11.80;6.97;;;13.40;47.70;;;;;;5172721;27;45230;-50
2024/01/13 05:08:56;;;;;;;13.18;6.80;;;13.40;47.70;;;;;;5173376;27;45258;-50
2024/01/13 05:11:23;;;;;;;13.10;6.70;;;13.40;47.70;;;;;;5172159;27;45717;-50
2024/01/13 05:13:51;;;;;;;16.05;7.63;;;13.40;47.70;;;;;;5174633;27;45327;-50
2024/01/13 05:16:18;;;;;;;14.35;6.78;;;13.50;47.70;;;;;;5174095;27;45678;-50
2024/01/13 05:18:45;;;;;;;14.13;7.70;;;13.40;47.60;;;;;;5172962;27;45377;-50
2024/01/13 05:21:11;;;;;;;12.18;7.40;;;13.40;47.70;;;;;;5172978;27;48603;-50
2024/01/13 05:23:38;;;;;;;12.82;7.28;;;13.40;47.70;;;;;;5172800;27;46569;-50
2024/01/13 05:26:05;;;;;;;15.23;7.10;;;13.30;47.60;;;;;;5174969;27;45339;-50
2024/01/13 05:28:32;;;;;;;14.38;7.35;;;13.40;47.70;;;;;;5175055;27;45506;-50
2024/01/13 05:31:00;;;;;;;9.82;6.25;;;13.30;47.60;;;;;;5171941;27;45210;-50
2024/01/13 05:33:27;;;;;;;12.60;7.03;;;13.30;47.60;;;;;;5172297;27;47414;-51
2024/01/13 05:35:54;;;;;;;13.38;6.93;;;13.30;47.60;;;;;;5170347;27;45320;-51
2024/01/13 05:38:21;;;;;;;12.68;7.00;;;13.30;47.60;;;;;;5171936;27;45378;-50
2024/01/13 05:40:48;;;;;;;16.63;7.55;;;13.30;47.70;;;;;;5174776;27;45370;-50
2024/01/13 05:43:15;;;;;;;13.98;7.03;;;13.30;48.80;;;;;;5173572;27;46251;-51
2024/01/13 05:45:43;;;;;;;13.73;6.88;;;13.30;47.60;;;;;;5169425;27;45191;-51
2024/01/13 05:48:11;;;;;;;11.88;6.80;;;13.40;48.20;;;;;;5174184;27;45331;-51
2024/01/13 05:50:38;;;;;;;13.98;7.80;;;13.40;47.70;;;;;;5171352;27;45332;-50
2024/01/13 05:53:04;;;;;;;13.45;6.88;;;13.40;47.70;;;;;;5170458;27;45248;-51
2024/01/13 05:55:31;;;;;;;12.40;7.10;;;13.40;47.70;;;;;;5171591;27;45263;-51
2024/01/13 05:57:58;;;;;;;15.27;7.13;;;13.40;47.70;;;;;;5174800;27;45448;-50
2024/01/13 06:00:25;;;;;;;10.48;7.00;;;13.40;47.70;;;;;;5175417;27;45436;-50
2024/01/13 06:02:53;;;;;;;11.95;7.38;;;13.50;47.80;;;;;;5171571;27;47444;-50
2024/01/13 06:05:21;;;;;;;11.30;6.88;;;13.40;47.70;;;;;;5176492;27;45345;-51
2024/01/13 06:07:48;;;;;;;13.38;7.57;;;13.40;47.70;;;;;;5173465;27;45467;-51
2024/01/13 06:10:17;;;;;;;12.93;7.35;;;13.40;47.70;;;;;;5170706;27;45284;-50
2024/01/13 06:12:45;;;;;;;11.93;6.55;;;13.40;47.70;;;;;;5174046;27;47178;-50
2024/01/13 06:15:12;;;;;;;13.95;7.30;;;13.40;47.70;;;;;;5173310;27;45452;-50
2024/01/13 06:17:39;;;;;;;14.27;7.10;;;13.40;47.70;;;;;;5171658;27;45367;-50
2024/01/13 06:20:08;;;;;;;13.20;7.88;;;13.40;47.70;;;;;;5173377;27;45478;-51
2024/01/13 06:22:36;;;;;;;14.27;7.07;;;13.30;47.60;;;;;;5173471;27;45501;-51
2024/01/13 06:25:04;;;;;;;13.98;7.05;;;13.30;47.60;;;;;;5170245;27;45245;-51
2024/01/13 06:27:31;;;;;;;11.77;6.82;;;13.30;47.60;;;;;;5171288;27;45241;-51
2024/01/13 06:29:58;;;;;;;11.60;6.60;;;13.30;47.60;;;;;;5175318;27;45824;-50
2024/01/13 06:32:24;;;;;;;12.38;7.65;;;13.30;47.60;;;;;;5176647;27;49702;-50
2024/01/13 06:34:51;;;;;;;12.10;7.10;;;13.30;47.60;;;;;;5175620;27;45459;-50
2024/01/13 06:37:19;;;;;;;12.57;7.32;;;13.30;47.60;;;;;;5176799;27;45418;-51
2024/01/13 06:39:47;;;;;;;18.45;7.63;;;13.30;47.60;;;;;;5174530;27;45480;-50
2024/01/13 06:42:14;;;;;;;10.80;6.30;;;13.30;47.30;;;;;;5175921;27;46488;-50
2024/01/13 06:44:41;;;;;;;12.23;7.00;;;13.30;47.20;;;;;;5172614;27;45442;-50
2024/01/13 06:47:08;;;;;;;11.00;6.50;;;13.30;47.10;;;;;;5176665;27;45294;-50
2024/01/13 06:49:34;;;;;;;11.73;6.30;;;13.30;47.20;;;;;;5176854;27;45206;-50
2024/01/13 06:52:01;;;;;;;12.82;7.00;;;13.30;47.00;;;;;;5175083;27;45244;-51
2024/01/13 06:54:28;;;;;;;13.02;6.53;;;13.30;46.60;;;;;;5173345;27;45516;-51
2024/01/13 06:56:56;;;;;;;13.00;6.53;;;13.40;46.80;;;;;;5175760;27;45373;-50
2024/01/13 06:59:22;;;;;;;13.55;6.55;;;13.40;46.60;;;;;;5174290;27;45221;-50
2024/01/13 07:01:49;;;;;;;12.77;6.70;;;13.40;46.60;;;;;;5175995;27;48179;-50
2024/01/13 07:04:16;;;;;;;10.90;6.05;;;13.50;46.40;;;;;;5175518;27;45428;-51
2024/01/13 07:06:43;;;;;;;9.73;5.85;;;13.40;46.00;;;;;;5179197;27;45514;-51
2024/01/13 07:09:10;;;;;;;11.40;6.88;;;13.50;45.90;;;;;;5175985;27;45271;-50
2024/01/13 07:11:36;;;;;;;10.13;6.40;;;13.50;45.80;;;;;;5176857;27;45258;-50
2024/01/13 07:14:05;;;;;;;13.70;6.80;;;13.40;45.80;;;;;;5176483;27;45353;-50
2024/01/13 07:16:32;;;;;;;11.00;6.00;;;13.40;45.80;;;;;;5177022;27;45334;-50
2024/01/13 07:18:59;;;;;;;8.68;5.38;;;13.40;45.80;;;;;;5178398;27;45443;-50
2024/01/13 07:21:26;;;;;;;9.68;5.78;;;13.40;46.20;;;;;;5180017;27;45452;-50
2024/01/13 07:23:52;;;;;;;10.27;5.75;;;13.40;45.40;;;;;;5177582;27;45340;-50
2024/01/13 07:26:19;;;;;;;10.40;5.43;;;13.40;45.60;;;;;;5176903;27;45253;-50
2024/01/13 07:28:46;;;;;;;10.18;6.05;;;13.40;45.60;;;;;;5179776;27;45351;-50
2024/01/13 07:31:14;;;;;;;10.85;5.57;;;13.40;45.60;;;;;;5179144;27;47184;-50
2024/01/13 07:33:41;;;;;;;10.13;6.00;;;13.40;45.80;;;;;;5176687;27;45316;-50
2024/01/13 07:36:08;;;;;;;11.35;5.75;;;13.40;45.90;;;;;;5177332;27;45368;-50
2024/01/13 07:38:35;;;;;;;11.85;5.88;;;13.40;45.90;;;;;;5178486;27;45325;-51
2024/01/13 07:41:01;;;;;;;9.25;5.95;;;13.40;46.00;;;;;;5177804;27;45366;-50
2024/01/13 07:43:28;;;;;;;10.18;5.75;;;13.40;46.00;;;;;;5179316;27;45404;-50
2024/01/13 07:45:55;;;;;;;8.20;5.57;;;13.40;46.10;;;;;;5178461;27;45479;-50
2024/01/13 07:48:23;;;;;;;10.55;5.90;;;13.40;46.10;;;;;;5178071;27;45326;-51
2024/01/13 07:50:50;;;;;;;9.63;5.60;;;13.40;48.10;;;;;;5178921;27;47232;-51
2024/01/13 07:53:16;;;;;;;10.93;6.65;;;13.40;47.70;;;;;;5175675;27;45290;-50
2024/01/13 07:55:44;;;;;;;8.07;5.93;;;13.40;47.70;;;;;;5179529;27;45471;-51
2024/01/13 07:58:10;;;;;;;10.20;5.60;;;13.40;47.00;;;;;;5178061;27;45536;-51
2024/01/13 08:00:37;;;;;;;8.90;5.70;;;13.40;46.80;;;;;;5178259;27;47461;-50
2024/01/13 08:03:05;;;;;;;7.78;4.80;;;13.40;46.60;;;;;;5176370;27;45324;-51
2024/01/13 08:05:33;;;;;;;8.95;5.50;;;13.40;46.40;;;;;;5177067;27;45331;-51
2024/01/13 08:08:01;;;;;;;7.90;5.32;;;13.40;46.40;;;;;;5176744;27;45280;-50
2024/01/13 08:10:28;;;;;;;8.15;5.88;;;13.40;46.60;;;;;;5179831;27;48707;-51
2024/01/13 08:12:55;;;;;;;9.38;5.72;;;13.40;46.70;;;;;;5180552;27;45195;-51
2024/01/13 08:15:21;;;;;;;10.10;5.70;;;13.40;46.70;;;;;;5176557;27;45289;-50
2024/01/13 08:17:48;;;;;;;10.38;5.57;;;13.40;46.70;;;;;;5177720;27;45144;-50
2024/01/13 08:20:15;;;;;;;8.43;5.28;;;13.30;46.50;;;;;;5178442;27;45326;-50
2024/01/13 08:22:43;;;;;;;9.10;5.00;;;13.30;46.30;;;;;;5172375;27;45202;-50
2024/01/13 08:25:10;;;;;;;8.77;5.35;;;13.30;46.20;;;;;;5174037;27;45338;-50
2024/01/13 08:27:37;;;;;;;8.82;5.30;;;13.30;47.40;;;;;;5174262;27;45228;-50
2024/01/13 08:30:04;;;;;;;8.75;4.80;;;13.30;46.20;;;;;;5177480;27;46564;-51
2024/01/13 08:32:31;;;;;;;8.95;5.28;;;13.30;46.20;;;;;;5178168;27;45306;-50
2024/01/13 08:34:58;;;;;;;8.00;5.18;;;13.30;46.50;;;;;;5177345;27;45326;-50
2024/01/13 08:37:25;;;;;;;8.45;4.95;;;13.30;46.20;;;;;;5177160;27;45407;-51
2024/01/13 08:39:53;;;;;;;9.10;4.97;;;13.40;46.20;;;;;;5177230;27;45642;-50
2024/01/13 08:42:19;;;;;;;8.93;5.20;;;13.40;46.20;;;;;;5177395;27;45156;-51
2024/01/13 08:44:46;;;;;;;8.32;4.97;;;13.30;46.10;;;;;;5179716;27;45520;-50
2024/01/13 08:47:13;;;;;;;38.95;7.82;;;13.40;46.60;;;;;;5175277;27;45270;-50
2024/01/13 08:49:40;;;;;;;17.48;5.40;;;13.60;47.20;;;;;;5178817;27;45188;-51
2024/01/13 08:52:08;;;;;;;9.82;5.18;;;13.60;46.00;;;;;;5177130;27;45355;-50
2024/01/13 08:54:36;;;;;;;13.57;5.28;;;13.50;45.60;;;;;;5174583;27;45268;-50
2024/01/13 08:57:05;;;;;;;10.02;4.32;;;13.50;45.60;;;;;;5176065;27;45500;-51
2024/01/13 08:59:33;;;;;;;8.10;4.15;;;13.50;45.70;;;;;;5176360;27;45356;-50
2024/01/13 09:01:59;;;;;;;19.98;4.85;;;13.50;45.90;;;;;;5178450;27;45683;-51
2024/01/13 09:04:26;;;;;;;6.88;3.90;;;13.50;45.70;;;;;;5176377;27;45212;-51
2024/01/13 09:06:53;;;;;;;6.85;4.25;;;13.50;45.70;;;;;;5177145;27;45256;-50
2024/01/13 09:09:20;;;;;;;7.15;3.97;;;13.50;45.70;;;;;;5175171;27;45184;-51
2024/01/13 09:11:47;;;;;;;4.70;3.50;;;13.50;45.40;;;;;;5176247;27;45338;-50
2024/01/13 09:14:16;;;;;;;6.72;3.88;;;13.50;45.30;;;;;;5178047;27;45367;-50
2024/01/13 09:16:43;;;;;;;8.13;3.90;;;13.50;45.50;;;;;;5178111;27;45522;-51
2024/01/13 09:19:10;;;;;;;7.90;3.50;;;13.50;45.50;;;;;;5174878;27;46078;-50
2024/01/13 09:21:36;;;;;;;5.40;3.33;;;13.50;45.60;;;;;;5178200;27;45356;-51
2024/01/13 09:24:03;;;;;;;5.45;3.03;;;13.50;45.50;;;;;;5176621;27;45215;-50
2024/01/13 09:26:30;;;;;;;4.95;3.10;;;13.50;45.50;;;;;;5175240;27;45444;-51
2024/01/13 09:28:57;;;;;;;5.07;2.90;;;13.60;45.50;;;;;;5176111;27;46553;-50
2024/01/13 09:31:25;;;;;;;4.65;2.83;;;13.50;45.80;;;;;;5177486;27;45248;-51
2024/01/13 09:33:52;;;;;;;5.15;3.15;;;13.50;46.00;;;;;;5177636;27;45145;-50
2024/01/13 09:36:19;;;;;;;4.18;2.78;;;13.50;45.90;;;;;;5175282;27;45697;-50
2024/01/13 09:38:45;;;;;;;5.10;2.60;;;13.50;46.00;;;;;;5172386;27;47882;-51
2024/01/13 09:41:13;;;;;;;3.88;2.80;;;13.60;46.00;;;;;;5175984;27;45367;-51
2024/01/13 09:43:48;;;;;;;5.28;3.17;;;13.60;46.60;;;;;;5176768;27;45326;-51
2024/01/13 09:46:15;;;;;;;3.78;2.63;;;13.70;46.50;;;;;;5175811;27;45566;-51
2024/01/13 09:48:46;;;;;;;5.30;2.80;;;13.60;46.30;;;;;;5174244;27;46512;-51
2024/01/13 09:51:13;;;;;;;4.70;2.38;;;13.60;46.30;;;;;;5175196;27;45619;-51
2024/01/13 09:53:47;;;;;;;3.17;2.33;;;13.60;46.00;;;;;;5173699;27;45293;-51
2024/01/13 09:56:21;;;;;;;4.32;2.65;;;13.70;46.00;;;;;;5176633;27;45368;-51
2024/01/13 09:58:48;;;;;;;5.47;2.53;;;13.60;46.10;;;;;;5177272;27;46319;-50
2024/01/13 10:01:15;;;;;;;5.22;2.58;;;13.60;45.80;;;;;;5177919;27;45268;-51
2024/01/13 10:03:43;;;;;;;3.25;2.25;;;13.60;45.80;;;;;;5174921;27;45226;-50
2024/01/13 10:06:10;;;;;;;3.05;1.92;;;13.60;45.50;;;;;;5176596;27;45453;-50
2024/01/13 10:08:37;;;;;;;5.18;2.25;;;13.60;45.50;;;;;;5173231;27;45309;-51
2024/01/13 10:11:04;;;;;;;3.33;2.30;;;13.50;45.40;;;;;;5174854;27;45867;-51
2024/01/13 10:13:31;;;;;;;2.47;1.80;;;13.60;45.40;;;;;;5176386;27;45257;-51
2024/01/13 10:15:58;;;;;;;3.33;2.17;;;13.60;45.10;;;;;;5176105;27;45346;-51
2024/01/13 10:18:25;;;;;;;2.58;2.00;;;13.70;45.10;;;;;;5177929;27;45499;-51
2024/01/13 10:20:53;;;;;;;3.90;2.08;;;13.70;45.00;;;;;;5180163;27;45260;-51
2024/01/13 10:23:22;;;;;;;3.63;2.10;;;13.70;44.90;;;;;;5180434;27;45242;-50
2024/01/13 10:25:50;;;;;;;3.28;1.92;;;13.70;44.90;;;;;;5174928;27;45396;-51
2024/01/13 10:28:17;;;;;;;2.53;2.10;;;13.70;44.90;;;;;;5176860;27;45289;-50
2024/01/13 10:30:43;;;;;;;2.33;1.80;;;13.70;44.80;;;;;;5177456;27;45401;-51
2024/01/13 10:33:11;;;;;;;3.38;2.00;;;13.80;44.80;;;;;;5174547;27;45391;-51
2024/01/13 10:35:38;;;;;;;4.35;2.28;;;13.80;44.70;;;;;;5178496;27;45290;-51
2024/01/13 10:38:07;;;;;;;3.38;2.30;;;13.80;44.70;;;;;;5177646;27;45465;-51
2024/01/13 10:40:34;;;;;;;2.50;1.85;;;13.90;44.80;;;;;;5179379;27;45306;-51
2024/01/13 10:43:05;;;;;;;2.22;1.92;;;13.80;44.70;;;;;;5176179;27;45280;-51
2024/01/13 10:45:35;;;;;;;2.67;1.73;;;13.90;44.80;;;;;;5178754;27;45516;-51
2024/01/13 10:48:08;;;;;;;3.13;1.90;;;13.90;44.90;;;;;;5175577;27;47345;-51
2024/01/13 10:50:37;;;;;;;2.38;1.80;;;14.00;44.80;;;;;;5177369;27;45897;-51
2024/01/13 10:53:15;;;;;;;2.47;1.98;;;14.00;44.60;;;;;;5175933;27;45406;-50
2024/01/13 10:55:43;;;;;;;3.55;2.10;;;14.00;44.50;;;;;;5179764;27;45261;-51
2024/01/13 10:58:11;;;;;;;2.75;1.77;;;14.00;44.60;;;;;;5176579;27;45448;-51
2024/01/13 11:00:39;;;;;;;2.60;1.60;;;14.00;44.60;;;;;;5178142;27;45343;-50
2024/01/13 11:03:07;;;;;;;2.40;1.95;;;13.90;44.60;;;;;;5174325;27;45290;-50
2024/01/13 11:05:37;;;;;;;5.07;1.90;;;14.00;44.70;;;;;;5171323;27;45410;-51
2024/01/13 11:08:07;;;;;;;2.67;1.95;;;13.90;44.70;;;;;;5174278;27;47068;-49
2024/01/13 11:10:37;;;;;;;3.28;1.85;;;13.90;44.80;;;;;;5171203;27;45338;-50
2024/01/13 11:13:11;;;;;;;3.47;2.15;;;13.90;44.80;;;;;;5172745;27;45311;-50
2024/01/13 11:15:42;;;;;;;3.53;1.95;;;13.90;44.80;;;;;;5175387;27;45220;-50
2024/01/13 11:18:13;;;;;;;5.30;2.03;;;13.80;44.90;;;;;;5174178;27;45233;-50
2024/01/13 11:21:02;;;;;;;3.20;2.03;;;13.80;45.30;;;;;;5174485;27;45290;-50
2024/01/13 11:23:37;;;;;;;3.45;2.17;;;13.80;46.90;;;;;;5172988;27;45334;-50
2024/01/13 11:26:04;;;;;;;4.75;2.10;;;13.80;47.00;;;;;;5172650;27;45469;-50
2024/01/13 11:28:46;;;;;;;2.10;1.63;;;13.80;45.90;;;;;;5174878;27;47283;-50
2024/01/13 11:31:32;;;;;;;2.92;1.98;;;13.80;46.10;;;;;;5174851;27;45522;-51
2024/01/13 11:34:00;;;;;;;4.30;1.80;;;13.80;46.30;;;;;;5175131;27;45621;-50
2024/01/13 11:36:29;;;;;;;2.78;1.80;;;13.90;46.50;;;;;;5171135;27;45455;-50
2024/01/13 11:39:00;;;;;;;2.53;1.80;;;13.80;46.20;;;;;;5171491;27;48737;-51
2024/01/13 11:41:38;;;;;;;3.70;1.80;;;13.90;46.50;;;;;;5175775;27;45271;-50
2024/01/13 11:44:05;;;;;;;5.15;2.00;;;13.80;46.60;;;;;;5174205;27;45320;-50
2024/01/13 11:46:34;;;;;;;2.83;1.77;;;13.90;46.60;;;;;;5172023;27;45191;-50
2024/01/13 11:49:02;;;;;;;3.70;2.13;;;13.90;46.80;;;;;;5176924;27;46331;-50
2024/01/13 11:51:56;;;;;;;4.32;1.98;;;13.90;47.00;;;;;;5177404;27;45356;-51
2024/01/13 11:54:24;;;;;;;3.33;2.00;;;13.80;46.90;;;;;;5176431;27;45539;-50
2024/01/13 11:56:51;;;;;;;4.78;1.98;;;13.80;46.90;;;;;;5175947;27;45514;-50
2024/01/13 11:59:18;;;;;;;2.90;2.00;;;13.80;47.20;;;;;;5176761;27;46525;-50
2024/01/13 12:01:46;;;;;;;3.88;2.00;;;13.80;47.40;;;;;;5177358;27;45222;-51
2024/01/13 12:04:14;;;;;;;4.78;2.30;;;13.80;47.50;;;;;;5174592;27;45180;-50
2024/01/13 12:06:42;;;;;;;2.78;1.65;;;13.80;47.40;;;;;;5176411;27;45469;-51
2024/01/13 12:09:09;;;;;;;3.05;1.85;;;13.80;47.50;;;;;;5174836;27;45481;-51
2024/01/13 12:11:37;;;;;;;2.92;1.92;;;13.80;47.80;;;;;;5176388;27;45330;-51
2024/01/13 12:14:04;;;;;;;3.13;1.90;;;13.70;47.90;;;;;;5179488;27;45305;-51
2024/01/13 12:16:31;;;;;;;3.47;2.20;;;13.70;47.70;;;;;;5176033;27;45306;-50
2024/01/13 12:18:58;;;;;;;2.67;2.08;;;13.80;47.70;;;;;;5178400;27;46542;-50
2024/01/13 12:21:25;;;;;;;3.17;2.45;;;13.70;47.90;;;;;;5175761;27;45345;-50
2024/01/13 12:23:52;;;;;;;3.55;2.28;;;13.70;47.60;;;;;;5177513;27;45341;-51
2024/01/13 12:26:19;;;;;;;3.63;2.47;;;13.70;48.40;;;;;;5173885;27;45443;-51
2024/01/13 12:28:47;;;;;;;4.63;2.28;;;13.80;47.90;;;;;;5176036;27;47155;-51
2024/01/13 12:31:13;;;;;;;3.50;2.60;;;13.80;48.00;;;;;;5177535;27;45321;-51
2024/01/13 12:33:40;;;;;;;3.35;2.47;;;13.80;47.90;;;;;;5173296;27;45369;-51
2024/01/13 12:36:07;;;;;;;4.35;2.60;;;13.80;47.60;;;;;;5177153;27;45323;-50
2024/01/13 12:38:34;;;;;;;4.18;2.83;;;13.80;47.70;;;;;;5172959;27;46239;-51
2024/01/13 12:41:01;;;;;;;5.00;2.90;;;13.80;47.70;;;;;;5175072;27;45483;-51
2024/01/13 12:43:29;;;;;;;4.38;3.13;;;13.80;47.40;;;;;;5176612;27;45236;-51